Aeroporto :
LOGIN :

Iscrizione | Disclaimer

   EN    FR    IT 

 










Sommario :    VFR   VFR Marginale   IFR   IFR Intensivo   IFR Molto Intensivo
Visibilità : 
Base nubi : 
>= 8 km
>= 3000ft
5 / 8 km
1000 / 3000 ft
1500m / 5 km
500 / 1000 ft
800 / 1500m
200 / 500 ft
< 800m
< 200 ft
Simboli :   Temporali  Nebbia  Neve Forte  Precipitazioni Forti  Vento > 20 kt
SIGMETs :   Varie  Temporali  Ghiacco  Turbolenza  Onda orograficha  Ceneri Vulcaniche






- Altitudine del aeroporto : 170 ft
- Codice IATA : KRP


EKKA - Karup

ULTIMO METAR :
  • 022120Z AUTO 25005KT 9999 -RA BKN035/// 14/11 Q1010

METARs OBSOLETI :
  • 022050Z AUTO 25004KT 9999 OVC030/// 14/11 Q1010
  • 022020Z AUTO 27004KT 9999 FEW014/// OVC035/// 14/11 Q1010
  • 021950Z AUTO 29007KT 9999 -DZ BKN018/// 14/11 Q1010
  • 021920Z AUTO 26007KT 9999 FEW023/// OVC034/// 15/11 Q1010
  • 021850Z AUTO 28009KT 9999 FEW019/// OVC025/// 15/11 Q1010

TAF TAF EKKA
Valido dal 02 a 21 ore il 03 a 21 ore UTC


022007Z 0221/0321 28008KT 9999 BKN030
TEMPO 0221/0315 FEW018TCU



MetMap, La meteo Aeronautica in un colpo d'occhio ! - Copyright ORBIFLY Dicembre 2007 - Disclaimer

ORBIFLY MET'MAP TEAM :

Programmazione e sviluppo : Alexandra Zaïnal
Concezione : Baudouin d'Aumeries
Aiuto per la programmazione : Marc-Olivier Méhu
Supporto tecnico e logistico : Manuel Goepfert
Aiuto per la traduzione : Arnaldo La Scala

Contatto : metmap@orbifly.com




FONTI E CREDITI :

   NOAA